Time;durP1;ratioP1;P1;durP2;ratioP2;P2;SDS_P1;SDS_P2;PMS_P1;PMS_P2;Temp;Humidity;BMP_temperature;BMP_pressure;BME280_temperature;BME280_humidity;BME280_pressure;Samples;Min_cycle;Max_cycle;Signal;HPM_P1;HPM_P2
2021/07/04 00:00:59;;;;;;;6.20;5.60;;;17.30;1.00;;;;;;5057380;28;20249;-66
2021/07/04 00:03:24;;;;;;;6.67;5.13;;;17.30;7.90;;;;;;5057013;28;20173;-66
2021/07/04 00:05:51;;;;;;;7.70;5.97;;;17.20;11.40;;;;;;5056845;28;20554;-66
2021/07/04 00:08:18;;;;;;;6.63;5.93;;;17.20;32.40;;;;;;5056609;28;20177;-67
2021/07/04 00:10:51;;;;;;;5.97;5.37;;;17.20;38.90;;;;;;5056897;28;20446;-67
2021/07/04 00:13:17;;;;;;;7.80;5.30;;;17.20;32.50;;;;;;5057015;28;20488;-66
2021/07/04 00:15:45;;;;;;;6.30;5.10;;;17.20;14.40;;;;;;5056737;28;20899;-68
2021/07/04 00:18:13;;;;;;;7.33;5.10;;;17.00;37.00;;;;;;5056483;28;20488;-66
2021/07/04 00:20:40;;;;;;;5.80;4.83;;;17.00;38.30;;;;;;5056421;28;20464;-66
2021/07/04 00:23:07;;;;;;;5.60;4.63;;;16.90;48.50;;;;;;5056512;28;20419;-67
2021/07/04 00:25:34;;;;;;;8.17;5.00;;;17.00;57.80;;;;;;5056393;28;20474;-66
2021/07/04 00:27:59;;;;;;;5.17;4.67;;;16.90;54.80;;;;;;5056392;28;20485;-68
2021/07/04 00:30:25;;;;;;;4.67;4.27;;;16.90;70.70;;;;;;5056362;28;20491;-67
2021/07/04 00:32:51;;;;;;;5.47;4.87;;;16.90;75.30;;;;;;5056542;28;20259;-67
2021/07/04 00:35:19;;;;;;;8.03;4.70;;;16.80;79.30;;;;;;5056528;28;20427;-67
2021/07/04 00:37:46;;;;;;;5.90;5.30;;;16.70;92.40;;;;;;5056439;28;20185;-67
2021/07/04 00:40:13;;;;;;;5.70;4.80;;;16.80;99.90;;;;;;5056550;28;20509;-67
2021/07/04 00:42:39;;;;;;;5.37;4.80;;;16.70;99.90;;;;;;5056291;28;20876;-67
2021/07/04 00:45:15;;;;;;;5.70;4.83;;;16.70;99.90;;;;;;5056165;28;20562;-66
2021/07/04 00:47:40;;;;;;;7.17;6.47;;;16.70;99.90;;;;;;5056010;28;20473;-65
2021/07/04 00:50:06;;;;;;;5.30;4.80;;;16.60;99.90;;;;;;5055899;28;20419;-63
2021/07/04 00:52:33;;;;;;;6.20;5.60;;;16.70;99.90;;;;;;5055762;28;20192;-66
2021/07/04 00:54:59;;;;;;;5.83;5.23;;;16.70;99.90;;;;;;5055078;28;20794;-66
2021/07/04 00:57:26;;;;;;;5.70;5.13;;;16.70;99.90;;;;;;5055823;28;20484;-67
2021/07/04 00:59:52;;;;;;;5.70;5.20;;;16.70;98.00;;;;;;5055919;28;20184;-66
2021/07/04 01:02:18;;;;;;;5.83;5.33;;;16.70;97.10;;;;;;5056136;28;20430;-66
2021/07/04 01:04:43;;;;;;;5.57;4.93;;;16.70;99.90;;;;;;5055658;28;20200;-67
2021/07/04 01:07:09;;;;;;;8.13;5.20;;;16.60;99.90;;;;;;5055548;28;20177;-66
2021/07/04 01:09:36;;;;;;;6.30;5.43;;;16.70;99.90;;;;;;5055453;28;20184;-66
2021/07/04 01:12:03;;;;;;;5.43;4.90;;;16.70;99.90;;;;;;5055554;28;20426;-66
2021/07/04 01:14:29;;;;;;;7.30;6.40;;;16.70;99.90;;;;;;5055530;28;20895;-66
2021/07/04 01:16:55;;;;;;;5.47;4.97;;;16.60;98.70;;;;;;5055348;28;20419;-66
2021/07/04 01:19:22;;;;;;;6.87;5.50;;;16.60;99.90;;;;;;5055306;28;20876;-66
2021/07/04 01:21:48;;;;;;;5.30;4.80;;;16.70;99.90;;;;;;5054401;28;20231;-67
2021/07/04 01:24:14;;;;;;;4.90;4.50;;;16.60;99.90;;;;;;5055238;28;20588;-67
2021/07/04 01:26:40;;;;;;;6.70;4.73;;;16.70;99.90;;;;;;5055127;28;20463;-67
2021/07/04 01:29:06;;;;;;;5.27;4.80;;;16.60;88.60;;;;;;5055064;28;20181;-66
2021/07/04 01:31:32;;;;;;;5.80;5.30;;;16.50;99.90;;;;;;5055254;28;20489;-66
2021/07/04 01:33:57;;;;;;;5.57;5.07;;;16.50;99.90;;;;;;5055248;28;20434;-66
2021/07/04 01:36:23;;;;;;;6.70;5.30;;;16.60;99.90;;;;;;5055205;28;20858;-66
2021/07/04 01:38:49;;;;;;;6.20;5.03;;;16.60;99.90;;;;;;5055202;28;20184;-67
2021/07/04 01:41:15;;;;;;;5.40;4.90;;;16.70;99.90;;;;;;5055169;28;20431;-66
2021/07/04 01:43:40;;;;;;;7.40;5.13;;;16.70;99.90;;;;;;5054144;28;20399;-66
2021/07/04 01:46:06;;;;;;;5.60;5.10;;;16.70;99.90;;;;;;5054982;28;20215;-67
2021/07/04 01:48:32;;;;;;;5.50;5.00;;;16.70;99.90;;;;;;5054592;28;20615;-67
2021/07/04 01:50:57;;;;;;;7.00;6.27;;;16.70;90.90;;;;;;5054812;28;20183;-67
2021/07/04 01:53:23;;;;;;;7.67;6.63;;;16.70;99.50;;;;;;5054809;28;20203;-67
2021/07/04 01:55:49;;;;;;;6.17;5.57;;;16.70;99.90;;;;;;5054767;28;20517;-66
2021/07/04 01:58:15;;;;;;;8.50;6.40;;;16.60;97.90;;;;;;5054505;28;20471;-63
2021/07/04 02:00:42;;;;;;;6.07;5.57;;;16.60;99.90;;;;;;5054614;28;20427;-63
2021/07/04 02:03:09;;;;;;;6.37;5.77;;;16.60;99.90;;;;;;5054736;28;20193;-63
2021/07/04 02:05:35;;;;;;;6.60;5.93;;;16.50;99.90;;;;;;5054703;28;20469;-63
2021/07/04 02:08:01;;;;;;;5.83;5.23;;;16.60;99.90;;;;;;5054284;28;20883;-63
2021/07/04 02:10:34;;;;;;;7.37;5.97;;;16.60;99.90;;;;;;5054516;28;20507;-63
2021/07/04 02:13:00;;;;;;;6.73;6.13;;;16.50;99.90;;;;;;5054662;28;20523;-66
2021/07/04 02:15:28;;;;;;;6.30;5.80;;;16.50;99.90;;;;;;5054511;28;20864;-64
2021/07/04 02:17:54;;;;;;;6.03;5.40;;;16.50;99.90;;;;;;5054201;28;20438;-65
2021/07/04 02:20:41;;;;;;;6.50;5.90;;;16.60;99.90;;;;;;5054175;28;20431;-64
2021/07/04 02:23:15;;;;;;;7.00;6.30;;;16.60;99.90;;;;;;5054322;28;20280;-64
2021/07/04 02:25:43;;;;;;;6.10;5.50;;;16.40;99.90;;;;;;5054547;28;20903;-63
2021/07/04 02:28:10;;;;;;;7.63;5.60;;;16.50;99.90;;;;;;5053803;28;20451;-64
2021/07/04 02:30:37;;;;;;;6.60;5.50;;;16.40;99.90;;;;;;5036608;28;20457;-64
2021/07/04 02:33:06;;;;;;;6.27;5.67;;;16.30;99.90;;;;;;5053020;28;20431;-64
2021/07/04 02:35:35;;;;;;;5.77;5.27;;;16.40;99.90;;;;;;5054099;28;20895;-64
2021/07/04 02:38:01;;;;;;;6.40;5.90;;;16.30;99.90;;;;;;5053924;28;20534;-68
2021/07/04 02:40:27;;;;;;;6.50;5.90;;;16.30;99.90;;;;;;5052843;28;20514;-67
2021/07/04 02:42:54;;;;;;;6.03;5.53;;;16.40;99.90;;;;;;5053801;28;20438;-64
2021/07/04 02:45:20;;;;;;;5.83;5.33;;;16.40;99.90;;;;;;5054009;28;20471;-66
2021/07/04 02:47:46;;;;;;;6.00;5.40;;;16.50;99.90;;;;;;5052773;28;20479;-68
2021/07/04 02:50:12;;;;;;;6.50;5.77;;;16.50;99.90;;;;;;5053792;28;20512;-67
2021/07/04 02:52:38;;;;;;;6.00;5.20;;;16.40;99.90;;;;;;5053710;28;20205;-68
2021/07/04 02:55:08;;;;;;;7.13;5.83;;;16.50;99.90;;;;;;5053829;28;20804;-69
2021/07/04 02:57:34;;;;;;;6.87;6.07;;;16.50;99.90;;;;;;5053532;28;20441;-68
2021/07/04 03:00:00;;;;;;;5.77;5.27;;;16.50;99.90;;;;;;5053665;28;20423;-64
2021/07/04 03:02:26;;;;;;;7.17;5.00;;;16.50;99.90;;;;;;5053656;28;20886;-64
2021/07/04 03:04:52;;;;;;;6.17;5.67;;;16.50;99.90;;;;;;5053442;28;20224;-64
2021/07/04 03:07:17;;;;;;;5.63;5.13;;;16.50;99.90;;;;;;5053503;28;20508;-64
2021/07/04 03:09:44;;;;;;;5.70;5.20;;;16.50;99.90;;;;;;5053436;28;20883;-64
2021/07/04 03:12:10;;;;;;;7.70;5.70;;;16.60;99.90;;;;;;5053448;28;20192;-68
2021/07/04 03:14:36;;;;;;;5.90;5.40;;;16.60;99.90;;;;;;5053394;28;20433;-68
2021/07/04 03:17:03;;;;;;;5.97;5.47;;;16.70;99.90;;;;;;5052311;28;20530;-68
2021/07/04 03:19:29;;;;;;;6.40;5.80;;;16.70;99.90;;;;;;5051939;28;20601;-68
2021/07/04 03:21:54;;;;;;;6.43;5.63;;;16.80;99.90;;;;;;5053457;28;20509;-64
2021/07/04 03:24:20;;;;;;;7.40;6.00;;;16.80;98.20;;;;;;5053512;28;20176;-64
2021/07/04 03:26:46;;;;;;;6.10;5.57;;;16.90;81.40;;;;;;5052142;28;20223;-64
2021/07/04 03:29:11;;;;;;;5.43;4.93;;;17.00;59.70;;;;;;5053243;28;20177;-64
2021/07/04 03:31:37;;;;;;;5.60;5.10;;;16.90;18.50;;;;;;5052496;28;20426;-64
2021/07/04 03:34:02;;;;;;;6.30;5.70;;;17.00;36.20;;;;;;5053423;28;20185;-69
2021/07/04 03:36:28;;;;;;;5.43;4.93;;;17.00;7.80;;;;;;5052493;28;20288;-68
2021/07/04 03:38:53;;;;;;;6.17;5.43;;;17.00;20.30;;;;;;5053130;28;20510;-68
2021/07/04 03:41:19;;;;;;;5.17;4.67;;;17.10;24.40;;;;;;5053183;28;20185;-68
2021/07/04 03:43:44;;;;;;;5.77;5.00;;;17.10;1.00;;;;;;5053188;28;20627;-68
2021/07/04 03:46:10;;;;;;;7.23;5.73;;;17.00;1.00;;;;;;5053077;28;20216;-68
2021/07/04 03:48:36;;;;;;;5.97;5.10;;;17.10;1.00;;;;;;5053045;28;20185;-68
2021/07/04 03:51:02;;;;;;;6.03;5.47;;;17.10;7.50;;;;;;5053356;28;20193;-69
2021/07/04 03:53:28;;;;;;;8.37;5.30;;;17.20;1.00;;;;;;5053144;28;20526;-67
2021/07/04 03:55:53;;;;;;;7.50;5.50;;;17.30;1.00;;;;;;5053222;28;20435;-66
2021/07/04 03:58:19;;;;;;;5.40;4.90;;;17.50;1.00;;;;;;5053031;28;20897;-66
2021/07/04 04:00:45;;;;;;;5.43;4.93;;;17.60;1.00;;;;;;5051965;28;20193;-68
2021/07/04 04:03:11;;;;;;;5.90;5.40;;;17.70;1.00;;;;;;5053086;28;20195;-64
2021/07/04 04:05:36;;;;;;;6.00;5.40;;;18.40;1.00;;;;;;5053088;28;20797;-64
2021/07/04 04:08:05;;;;;;;6.57;5.33;;;19.90;1.00;;;;;;5053072;28;20189;-67
2021/07/04 04:10:31;;;;;;;5.40;5.00;;;21.10;99.90;;;;;;5052255;28;20605;-64
2021/07/04 04:12:57;;;;;;;5.00;4.27;;;21.90;1.00;;;;;;5052890;28;20419;-63
2021/07/04 04:15:22;;;;;;;4.10;3.70;;;22.30;99.90;;;;;;5052952;28;20185;-68
2021/07/04 04:17:48;;;;;;;4.70;4.30;;;23.10;1.00;;;;;;5052937;28;20200;-67
2021/07/04 04:20:14;;;;;;;4.60;4.20;;;23.20;1.00;;;;;;5052085;28;20499;-66
2021/07/04 04:22:40;;;;;;;5.90;4.70;;;23.20;1.00;;;;;;5052003;28;20200;-65
2021/07/04 04:25:06;;;;;;;5.10;4.30;;;23.00;1.00;;;;;;5052875;28;20205;-68
2021/07/04 04:27:31;;;;;;;4.87;4.33;;;22.90;1.00;;;;;;5052681;28;20185;-65
2021/07/04 04:29:57;;;;;;;5.10;4.60;;;23.70;99.90;;;;;;5052892;28;20435;-68
2021/07/04 04:32:23;;;;;;;5.83;4.83;;;24.30;99.90;;;;;;5056536;28;20255;-67
2021/07/04 04:34:48;;;;;;;6.70;5.27;;;24.10;99.90;;;;;;5056428;28;20252;-68
2021/07/04 04:37:14;;;;;;;5.70;5.10;;;24.10;99.90;;;;;;5056327;28;20519;-68
2021/07/04 04:39:40;;;;;;;6.07;5.47;;;24.80;99.90;;;;;;5056432;28;20185;-68
2021/07/04 04:42:05;;;;;;;5.90;4.70;;;25.10;1.00;;;;;;5056178;28;20231;-68
2021/07/04 04:44:31;;;;;;;5.47;4.90;;;26.00;1.00;;;;;;5056155;28;20260;-68
2021/07/04 04:46:57;;;;;;;5.40;4.90;;;26.00;1.00;;;;;;5055330;28;20177;-64
2021/07/04 04:49:22;;;;;;;5.30;4.80;;;25.70;1.00;;;;;;5056131;28;20215;-69
2021/07/04 04:51:48;;;;;;;5.93;5.33;;;26.00;1.00;;;;;;5056174;28;20177;-68
2021/07/04 04:54:13;;;;;;;5.63;5.13;;;25.80;1.00;;;;;;5056072;28;20193;-64
2021/07/04 04:56:39;;;;;;;6.67;5.40;;;26.60;1.00;;;;;;5055872;28;20252;-64
2021/07/04 04:59:05;;;;;;;4.97;4.50;;;26.50;1.00;;;;;;5055786;28;20169;-68
2021/07/04 05:01:30;;;;;;;5.40;5.00;;;26.80;1.00;;;;;;5055897;28;20192;-66
2021/07/04 05:03:59;;;;;;;5.40;4.90;;;26.80;1.00;;;;;;5055990;28;20188;-64
2021/07/04 05:06:25;;;;;;;5.80;5.30;;;27.00;1.00;;;;;;5055670;28;20652;-67
2021/07/04 05:08:50;;;;;;;5.00;4.60;;;27.10;1.00;;;;;;5055563;28;20423;-64
2021/07/04 05:11:16;;;;;;;5.40;4.90;;;27.40;1.00;;;;;;5055671;28;20192;-65
2021/07/04 05:13:42;;;;;;;6.20;5.60;;;27.00;1.00;;;;;;5055833;28;20188;-64
2021/07/04 05:16:08;;;;;;;6.23;5.73;;;26.90;1.00;;;;;;5055622;28;20187;-64
2021/07/04 05:18:34;;;;;;;6.20;5.70;;;27.30;1.00;;;;;;5055402;28;20553;-65
2021/07/04 05:21:00;;;;;;;6.80;6.10;;;27.10;1.00;;;;;;5055474;28;20829;-64
2021/07/04 05:23:26;;;;;;;6.50;5.90;;;27.30;1.00;;;;;;5055419;28;20454;-69
2021/07/04 05:25:58;;;;;;;7.60;6.37;;;26.70;1.00;;;;;;5055404;28;20510;-65
2021/07/04 05:28:26;;;;;;;6.87;6.03;;;26.90;1.00;;;;;;5055167;28;20430;-69
2021/07/04 05:30:51;;;;;;;7.67;6.97;;;27.30;1.00;;;;;;5054384;28;20437;-68
2021/07/04 05:33:17;;;;;;;7.50;6.50;;;27.50;1.00;;;;;;5055167;28;20837;-69
2021/07/04 05:35:43;;;;;;;10.60;6.90;;;28.00;1.00;;;;;;5054131;28;20437;-69
2021/07/04 05:38:19;;;;;;;7.17;6.47;;;27.60;1.00;;;;;;5054846;28;20511;-69
2021/07/04 05:40:49;;;;;;;7.37;6.73;;;27.90;1.00;;;;;;5055165;28;20621;-68
2021/07/04 05:43:15;;;;;;;7.70;7.07;;;28.30;1.00;;;;;;5055130;28;20432;-68
2021/07/04 05:45:41;;;;;;;7.10;6.50;;;28.50;1.00;;;;;;5054883;28;20573;-69
2021/07/04 05:48:09;;;;;;;6.50;6.00;;;28.30;1.00;;;;;;5054841;28;20427;-68
2021/07/04 05:50:35;;;;;;;5.67;5.17;;;29.10;1.00;;;;;;5054774;28;20426;-69
2021/07/04 05:53:01;;;;;;;6.60;6.10;;;29.20;1.00;;;;;;5055039;28;20439;-69
2021/07/04 05:55:26;;;;;;;6.33;5.60;;;30.20;1.00;;;;;;5054869;28;20629;-68
2021/07/04 05:57:52;;;;;;;7.17;6.47;;;30.50;1.00;;;;;;5054654;28;20250;-68
2021/07/04 06:00:18;;;;;;;6.90;6.20;;;29.30;1.00;;;;;;5054569;28;20491;-65
2021/07/04 06:02:43;;;;;;;6.07;5.50;;;29.90;1.00;;;;;;5054750;28;20647;-67
2021/07/04 06:05:09;;;;;;;6.53;6.00;;;29.60;1.00;;;;;;5054759;28;20459;-66
2021/07/04 06:07:35;;;;;;;7.13;6.53;;;29.40;1.00;;;;;;5054532;28;20515;-65
2021/07/04 06:10:03;;;;;;;6.30;5.73;;;29.20;1.00;;;;;;5053720;28;20506;-64
2021/07/04 06:12:29;;;;;;;6.30;5.70;;;29.30;1.00;;;;;;5054239;28;20469;-64
2021/07/04 06:14:54;;;;;;;6.63;6.03;;;30.00;1.00;;;;;;5053349;28;20420;-68
2021/07/04 06:17:20;;;;;;;7.40;6.07;;;30.70;1.00;;;;;;5054460;28;20222;-67
2021/07/04 06:19:45;;;;;;;6.20;5.60;;;31.30;1.00;;;;;;5056277;28;20177;-67
2021/07/04 06:22:11;;;;;;;6.70;6.10;;;31.20;1.00;;;;;;5055994;28;20234;-67
2021/07/04 06:24:36;;;;;;;6.70;6.10;;;31.30;1.00;;;;;;5055463;28;20216;-68
2021/07/04 06:27:02;;;;;;;6.27;5.67;;;30.80;1.00;;;;;;5055034;28;20195;-67
2021/07/04 06:29:27;;;;;;;6.00;5.60;;;30.10;1.00;;;;;;5055651;28;20189;-67
2021/07/04 06:31:53;;;;;;;6.43;5.93;;;29.90;1.00;;;;;;5055242;28;20263;-68
2021/07/04 06:34:19;;;;;;;6.70;6.10;;;29.60;1.00;;;;;;5054336;28;20263;-64
2021/07/04 06:36:44;;;;;;;5.87;5.37;;;30.40;1.00;;;;;;5054053;28;20528;-64
2021/07/04 06:39:10;;;;;;;6.17;5.57;;;30.90;1.00;;;;;;5053127;28;20189;-69
2021/07/04 06:41:35;;;;;;;6.03;5.53;;;32.20;1.00;;;;;;5054103;28;20238;-68
2021/07/04 06:44:01;;;;;;;6.00;5.40;;;31.60;1.00;;;;;;5054185;28;20193;-64
2021/07/04 06:46:27;;;;;;;6.20;5.70;;;31.30;1.00;;;;;;5053864;28;21117;-64
2021/07/04 06:48:52;;;;;;;5.80;5.20;;;30.70;1.00;;;;;;5053874;28;20191;-64
2021/07/04 06:51:18;;;;;;;5.90;5.40;;;30.60;1.00;;;;;;5054443;28;20176;-67
2021/07/04 06:53:44;;;;;;;6.70;6.00;;;30.30;1.00;;;;;;5053341;28;20532;-66
2021/07/04 06:56:09;;;;;;;6.27;5.67;;;29.50;1.00;;;;;;5054214;28;20255;-68
2021/07/04 06:58:35;;;;;;;5.70;4.70;;;29.30;1.00;;;;;;5054158;28;20283;-66
2021/07/04 07:01:01;;;;;;;5.17;4.67;;;28.70;1.00;;;;;;5053607;28;20184;-67
2021/07/04 07:03:27;;;;;;;5.87;5.30;;;28.40;1.00;;;;;;5053881;28;20435;-64
2021/07/04 07:05:52;;;;;;;6.07;5.47;;;28.50;1.00;;;;;;5053712;28;20213;-68
2021/07/04 07:08:18;;;;;;;6.10;5.60;;;28.80;1.00;;;;;;5053449;28;20181;-65
2021/07/04 07:10:44;;;;;;;5.80;5.23;;;29.10;1.00;;;;;;5053838;28;20177;-69
2021/07/04 07:13:10;;;;;;;5.33;4.83;;;29.80;1.00;;;;;;5053897;28;20901;-68
2021/07/04 07:15:36;;;;;;;4.77;4.37;;;29.90;1.00;;;;;;5054243;28;20207;-68
2021/07/04 07:18:02;;;;;;;5.90;5.40;;;30.10;1.00;;;;;;5054341;28;20431;-68
2021/07/04 07:20:27;;;;;;;5.23;4.73;;;30.00;1.00;;;;;;5053771;28;20256;-68
2021/07/04 07:22:53;;;;;;;5.00;4.50;;;29.80;1.00;;;;;;5054294;28;20196;-69
2021/07/04 07:25:19;;;;;;;5.13;4.73;;;30.30;1.00;;;;;;5053765;28;20548;-69
2021/07/04 07:27:45;;;;;;;4.87;4.37;;;31.00;1.00;;;;;;5052209;28;20431;-69
2021/07/04 07:30:12;;;;;;;5.20;4.80;;;31.50;1.00;;;;;;5053231;28;20180;-69
2021/07/04 07:32:39;;;;;;;5.77;5.10;;;30.00;1.00;;;;;;5053500;28;20207;-68
2021/07/04 07:35:06;;;;;;;4.77;4.37;;;30.10;1.00;;;;;;5053231;28;20463;-66
2021/07/04 07:37:32;;;;;;;5.17;4.60;;;30.50;1.00;;;;;;5053414;28;20442;-69
2021/07/04 07:39:58;;;;;;;5.27;4.77;;;29.70;1.00;;;;;;5053164;28;20423;-64
2021/07/04 07:42:23;;;;;;;5.10;4.60;;;29.10;1.00;;;;;;5052618;28;20196;-65
2021/07/04 07:44:49;;;;;;;5.90;5.40;;;28.50;1.00;;;;;;5053735;28;20531;-62
2021/07/04 07:47:15;;;;;;;6.40;5.60;;;27.30;1.00;;;;;;5052708;28;20183;-63
2021/07/04 07:49:40;;;;;;;5.93;5.33;;;27.20;1.00;;;;;;5054118;28;20222;-63
2021/07/04 07:52:06;;;;;;;5.70;5.20;;;26.80;1.00;;;;;;5054031;28;20177;-63
2021/07/04 07:54:32;;;;;;;5.33;4.93;;;26.30;3.10;;;;;;5054177;28;20261;-65
2021/07/04 07:56:57;;;;;;;5.07;4.67;;;26.10;99.90;;;;;;5053526;28;20931;-65
2021/07/04 07:59:23;;;;;;;4.80;4.40;;;25.70;99.90;;;;;;5052992;28;20294;-63
2021/07/04 08:01:49;;;;;;;7.43;5.53;;;26.10;99.90;;;;;;5053152;28;20254;-64
2021/07/04 08:04:15;;;;;;;7.43;5.50;;;26.70;99.90;;;;;;5053561;28;20193;-65
2021/07/04 08:06:40;;;;;;;5.67;5.20;;;26.60;85.10;;;;;;5056589;28;20219;-65
2021/07/04 08:09:06;;;;;;;5.30;4.80;;;27.00;62.80;;;;;;5057273;28;20653;-63
2021/07/04 08:11:32;;;;;;;5.30;4.80;;;26.70;1.00;;;;;;5057075;28;20177;-67
2021/07/04 08:13:58;;;;;;;4.90;4.50;;;26.90;56.90;;;;;;5057136;28;20177;-67
2021/07/04 08:16:23;;;;;;;5.90;5.40;;;27.00;27.80;;;;;;5056782;28;20419;-63
2021/07/04 08:18:49;;;;;;;5.53;5.10;;;27.30;1.00;;;;;;5056607;28;20431;-65
2021/07/04 08:21:15;;;;;;;6.60;5.47;;;27.20;1.00;;;;;;5056625;28;20176;-68
2021/07/04 08:23:41;;;;;;;7.00;6.30;;;26.90;1.00;;;;;;5056729;28;20263;-63
2021/07/04 08:26:06;;;;;;;6.63;4.90;;;27.10;28.60;;;;;;5056498;28;20232;-63
2021/07/04 08:28:33;;;;;;;6.57;5.63;;;27.30;1.00;;;;;;5056343;28;20192;-63
2021/07/04 08:30:58;;;;;;;4.60;4.20;;;27.40;1.00;;;;;;5056666;28;20177;-63
2021/07/04 08:33:24;;;;;;;6.07;5.30;;;27.40;1.00;;;;;;5055398;28;20429;-63
2021/07/04 08:35:50;;;;;;;5.73;5.20;;;27.40;1.00;;;;;;5056485;28;20181;-63
2021/07/04 08:38:15;;;;;;;8.43;5.60;;;27.00;1.00;;;;;;5056150;28;20314;-63
2021/07/04 08:40:41;;;;;;;4.97;4.57;;;26.90;1.00;;;;;;5055380;28;20251;-63
2021/07/04 08:43:07;;;;;;;6.20;5.70;;;26.70;1.00;;;;;;5056305;28;20187;-68
2021/07/04 08:45:37;;;;;;;7.10;6.00;;;26.50;98.60;;;;;;5055774;28;20213;-69
2021/07/04 08:48:04;;;;;;;5.77;5.27;;;26.50;1.00;;;;;;5056115;28;20264;-69
2021/07/04 08:50:29;;;;;;;5.80;5.20;;;26.80;91.20;;;;;;5056007;28;20423;-68
2021/07/04 08:52:58;;;;;;;5.83;5.33;;;27.00;1.00;;;;;;5056129;28;20500;-69
2021/07/04 08:55:24;;;;;;;8.30;6.07;;;27.10;1.00;;;;;;5056086;28;20223;-68
2021/07/04 08:57:50;;;;;;;5.97;5.37;;;27.20;1.00;;;;;;5056057;28;20806;-69
2021/07/04 09:00:17;;;;;;;7.13;6.00;;;27.20;11.00;;;;;;5055848;28;20211;-69
2021/07/04 09:02:43;;;;;;;10.93;6.00;;;27.50;99.90;;;;;;5055754;28;20177;-68
2021/07/04 09:05:11;;;;;;;5.90;5.40;;;27.30;1.00;;;;;;5054794;28;20467;-69
2021/07/04 09:07:38;;;;;;;6.63;5.30;;;27.40;1.00;;;;;;5054862;28;20192;-69
2021/07/04 09:10:04;;;;;;;6.40;5.90;;;27.40;1.00;;;;;;5055643;28;20950;-62
2021/07/04 09:12:44;;;;;;;6.80;6.20;;;27.30;1.00;;;;;;5055685;28;20427;-63
2021/07/04 09:15:14;;;;;;;7.33;6.63;;;27.30;1.00;;;;;;5055735;28;20177;-63
2021/07/04 09:17:44;;;;;;;8.67;6.90;;;27.20;1.00;;;;;;5054721;28;20764;-63
2021/07/04 09:20:21;;;;;;;6.33;5.83;;;27.10;1.00;;;;;;5054504;28;20431;-63
2021/07/04 09:22:52;;;;;;;7.33;6.63;;;27.30;1.00;;;;;;5055587;28;20426;-63
2021/07/04 09:25:20;;;;;;;5.87;5.27;;;27.50;1.00;;;;;;5054404;28;20892;-63
2021/07/04 09:28:24;;;;;;;6.30;5.70;;;27.50;1.00;;;;;;5055641;28;20465;-63
2021/07/04 09:30:51;;;;;;;6.07;5.47;;;28.10;1.00;;;;;;5073589;28;20521;-63
2021/07/04 09:33:20;;;;;;;6.47;5.87;;;28.30;1.00;;;;;;5073406;28;20434;-63
2021/07/04 09:36:04;;;;;;;7.30;6.60;;;28.70;1.00;;;;;;5064305;28;20478;-63
2021/07/04 09:38:34;;;;;;;6.00;5.40;;;28.50;1.00;;;;;;5055205;28;20435;-63
2021/07/04 09:41:02;;;;;;;6.20;5.60;;;28.30;1.00;;;;;;5055198;28;20427;-63
2021/07/04 09:43:29;;;;;;;6.87;6.27;;;29.00;1.00;;;;;;5055147;28;20904;-63
2021/07/04 09:45:57;;;;;;;7.20;5.67;;;28.60;1.00;;;;;;5054536;28;20467;-63
2021/07/04 09:48:37;;;;;;;9.90;6.30;;;28.70;1.00;;;;;;5057831;28;20445;-68
2021/07/04 09:51:20;;;;;;;6.00;5.40;;;28.70;1.00;;;;;;5062829;28;20437;-66
2021/07/04 09:53:52;;;;;;;6.20;5.70;;;28.60;1.00;;;;;;5066481;28;20778;-68
2021/07/04 09:56:26;;;;;;;6.13;5.50;;;28.00;1.00;;;;;;5075069;28;20505;-67
2021/07/04 09:59:00;;;;;;;7.80;7.10;;;28.40;1.00;;;;;;5055154;28;20495;-65
2021/07/04 10:01:37;;;;;;;6.47;5.87;;;29.10;1.00;;;;;;5063583;28;20738;-68
2021/07/04 10:04:07;;;;;;;6.37;5.77;;;28.20;1.00;;;;;;5074460;28;20505;-66
2021/07/04 10:06:55;;;;;;;6.60;5.80;;;28.40;1.00;;;;;;5061945;28;20474;-68
2021/07/04 10:09:26;;;;;;;5.70;5.20;;;28.60;1.00;;;;;;5053759;28;20427;-68
2021/07/04 10:11:53;;;;;;;6.40;5.90;;;28.10;1.00;;;;;;5054752;28;20868;-67
2021/07/04 10:14:21;;;;;;;6.67;6.07;;;28.30;1.00;;;;;;5053635;28;20427;-68
2021/07/04 10:16:48;;;;;;;6.67;5.93;;;28.20;1.00;;;;;;5054484;28;20453;-67
2021/07/04 10:19:19;;;;;;;6.30;5.70;;;28.00;1.00;;;;;;5053254;28;20431;-66
2021/07/04 10:21:57;;;;;;;6.83;5.80;;;28.10;1.00;;;;;;5053332;28;20779;-68
2021/07/04 10:24:34;;;;;;;6.20;5.60;;;28.10;1.00;;;;;;5054244;28;20455;-70
2021/07/04 10:27:04;;;;;;;6.20;5.70;;;28.20;1.00;;;;;;5054157;28;20549;-71
2021/07/04 10:29:31;;;;;;;6.30;5.80;;;28.90;1.00;;;;;;5054111;28;20911;-68
2021/07/04 10:32:09;;;;;;;5.90;5.30;;;28.60;1.00;;;;;;5054201;28;20481;-69
2021/07/04 10:34:44;;;;;;;7.93;5.20;;;28.80;1.00;;;;;;5052814;28;20431;-69
2021/07/04 10:37:12;;;;;;;7.30;6.60;;;28.60;1.00;;;;;;5054036;28;20447;-69
2021/07/04 10:39:38;;;;;;;6.20;5.70;;;28.70;1.00;;;;;;5053837;28;20522;-68
2021/07/04 10:42:10;;;;;;;5.37;4.87;;;28.80;1.00;;;;;;5054044;28;20415;-67
2021/07/04 10:44:48;;;;;;;6.60;6.10;;;29.20;1.00;;;;;;5052902;28;20423;-67
2021/07/04 10:47:23;;;;;;;6.40;5.73;;;29.50;1.00;;;;;;5053313;28;20473;-68
2021/07/04 10:50:08;;;;;;;5.77;5.27;;;28.80;1.00;;;;;;5053744;28;20422;-67
2021/07/04 10:52:34;;;;;;;6.30;5.70;;;28.60;1.00;;;;;;5053733;28;20439;-68
2021/07/04 10:55:03;;;;;;;7.33;6.73;;;28.40;1.00;;;;;;5053906;28;20423;-66
2021/07/04 10:57:36;;;;;;;6.63;6.03;;;28.40;1.00;;;;;;5062975;28;20434;-67
2021/07/04 11:00:11;;;;;;;6.40;5.77;;;28.30;1.00;;;;;;5073948;28;20500;-68
2021/07/04 11:02:50;;;;;;;7.07;6.30;;;28.60;1.00;;;;;;5073800;28;20450;-68
2021/07/04 11:05:38;;;;;;;5.97;5.43;;;29.20;1.00;;;;;;5073215;28;20480;-64
2021/07/04 11:08:18;;;;;;;6.83;6.10;;;30.00;1.00;;;;;;5073723;28;20500;-64
2021/07/04 11:11:07;;;;;;;6.23;5.70;;;29.20;1.00;;;;;;5077459;28;20426;-68
2021/07/04 11:13:45;;;;;;;6.47;5.97;;;28.20;1.00;;;;;;5078208;28;20460;-68
2021/07/04 11:16:16;;;;;;;8.23;6.30;;;28.30;1.00;;;;;;5077629;28;20434;-68
2021/07/04 11:18:52;;;;;;;6.17;5.67;;;28.80;1.00;;;;;;5080975;28;20918;-69
2021/07/04 11:21:22;;;;;;;5.90;5.40;;;28.60;1.00;;;;;;5075664;28;20909;-67
2021/07/04 11:24:16;;;;;;;7.40;6.60;;;28.80;1.00;;;;;;5074589;28;20438;-68
2021/07/04 11:26:42;;;;;;;7.40;6.57;;;28.30;1.00;;;;;;5075121;28;20465;-67
2021/07/04 11:29:12;;;;;;;7.30;6.37;;;28.10;1.00;;;;;;5072674;28;20906;-64
2021/07/04 11:31:43;;;;;;;8.77;7.10;;;28.00;1.00;;;;;;5072637;28;20430;-64
2021/07/04 11:34:10;;;;;;;6.23;5.70;;;28.30;1.00;;;;;;5073846;28;20450;-64
2021/07/04 11:36:37;;;;;;;6.63;6.03;;;28.40;1.00;;;;;;5073073;28;20470;-65
2021/07/04 11:39:03;;;;;;;7.40;6.00;;;28.40;1.00;;;;;;5073141;28;20480;-67
2021/07/04 11:41:38;;;;;;;7.00;6.30;;;28.40;1.00;;;;;;5077899;28;20458;-63
2021/07/04 11:44:13;;;;;;;7.13;6.47;;;28.00;1.00;;;;;;5077763;28;20527;-64
2021/07/04 11:46:41;;;;;;;7.23;6.53;;;27.40;1.00;;;;;;5077617;28;20492;-64
2021/07/04 11:49:13;;;;;;;6.93;6.23;;;27.20;1.00;;;;;;5077641;28;20426;-64
2021/07/04 11:51:48;;;;;;;6.80;6.20;;;27.20;1.00;;;;;;5077701;28;20426;-64
2021/07/04 11:54:26;;;;;;;6.27;5.67;;;27.70;1.00;;;;;;5077468;28;20472;-64
2021/07/04 11:56:57;;;;;;;6.60;6.00;;;28.60;1.00;;;;;;5077619;28;20543;-64
2021/07/04 11:59:25;;;;;;;6.50;6.00;;;28.70;1.00;;;;;;5077430;28;20430;-63
2021/07/04 12:02:00;;;;;;;6.70;6.17;;;28.80;1.00;;;;;;5077330;28;20445;-68
2021/07/04 12:04:34;;;;;;;7.37;6.67;;;28.30;1.00;;;;;;5077189;28;20497;-69
2021/07/04 12:07:11;;;;;;;7.33;6.73;;;28.10;1.00;;;;;;5077118;28;20469;-69
2021/07/04 12:09:39;;;;;;;7.10;6.40;;;27.90;1.00;;;;;;5077069;28;20505;-68
2021/07/04 12:12:15;;;;;;;5.97;5.37;;;27.50;1.00;;;;;;5077088;28;20439;-64
2021/07/04 12:14:41;;;;;;;6.97;6.27;;;28.10;1.00;;;;;;5077112;28;20513;-63
2021/07/04 12:17:27;;;;;;;6.47;5.90;;;28.40;1.00;;;;;;5076965;28;20437;-64
2021/07/04 12:19:57;;;;;;;7.20;6.50;;;28.30;1.00;;;;;;5076744;28;20442;-67
2021/07/04 12:22:32;;;;;;;6.90;6.30;;;28.00;1.00;;;;;;5077026;28;20434;-69
2021/07/04 12:25:00;;;;;;;7.97;7.20;;;27.80;1.00;;;;;;5077003;28;20429;-69
2021/07/04 12:27:37;;;;;;;13.70;7.63;;;27.60;1.00;;;;;;5076584;28;20491;-69
2021/07/04 12:30:27;;;;;;;7.60;6.87;;;27.40;1.00;;;;;;5076820;28;20441;-68
2021/07/04 12:33:06;;;;;;;6.97;6.27;;;27.70;1.00;;;;;;5073053;28;20442;-69
2021/07/04 12:35:34;;;;;;;7.00;6.40;;;27.50;1.00;;;;;;5076882;28;20515;-69
2021/07/04 12:38:05;;;;;;;7.20;6.50;;;27.00;1.00;;;;;;5076800;28;20434;-69
2021/07/04 12:40:54;;;;;;;8.00;7.30;;;27.20;1.00;;;;;;5076694;28;20465;-70
2021/07/04 12:43:33;;;;;;;7.37;6.67;;;27.70;1.00;;;;;;5075478;28;20431;-69
2021/07/04 12:46:01;;;;;;;7.50;6.80;;;27.70;1.00;;;;;;5076669;28;20470;-70
2021/07/04 12:48:27;;;;;;;6.90;6.30;;;27.80;1.00;;;;;;5076043;28;20506;-69
2021/07/04 12:50:59;;;;;;;7.30;6.70;;;28.00;1.00;;;;;;5075246;28;20822;-69
2021/07/04 12:53:45;;;;;;;7.70;6.90;;;27.90;1.00;;;;;;5076315;28;20442;-69
2021/07/04 12:56:24;;;;;;;8.20;7.17;;;27.70;1.00;;;;;;5075337;28;20446;-64
2021/07/04 12:59:03;;;;;;;8.03;7.40;;;27.70;1.00;;;;;;5075599;28;20513;-69